Time;durP1;ratioP1;P1;durP2;ratioP2;P2;SDS_P1;SDS_P2;PMS_P1;PMS_P2;Temp;Humidity;BMP_temperature;BMP_pressure;BME280_temperature;BME280_humidity;BME280_pressure;Samples;Min_cycle;Max_cycle;Signal;HPM_P1;HPM_P2
2021/01/25 00:00:51;;;;;;;4.60;2.60;;;-3276.50;96.20;;;;;;5050026;28;20053;-81
2021/01/25 00:03:18;;;;;;;8.00;3.92;;;-3276.50;95.90;;;;;;5034188;28;20205;-82
2021/01/25 00:05:47;;;;;;;6.30;1.92;;;-3276.50;95.80;;;;;;5014684;28;20359;-84
2021/01/25 00:08:15;;;;;;;8.27;2.65;;;-3276.50;96.10;;;;;;5052366;28;20053;-83
2021/01/25 00:10:42;;;;;;;4.60;2.42;;;-3276.50;96.10;;;;;;5020294;28;20193;-80
2021/01/25 00:13:11;;;;;;;3.63;2.28;;;-3276.50;96.20;;;;;;5054684;28;20060;-83
2021/01/25 00:15:39;;;;;;;3.30;1.90;;;-3276.50;96.20;;;;;;5052195;28;20332;-81
2021/01/25 00:18:08;;;;;;;3.53;1.95;;;-3276.50;96.20;;;;;;5053146;28;20271;-83
2021/01/25 00:20:35;;;;;;;5.03;2.72;;;-3276.60;96.20;;;;;;5036831;28;20049;-84
2021/01/25 00:23:06;;;;;;;5.32;3.33;;;-3276.60;95.70;;;;;;5034271;28;20083;-81
2021/01/25 00:25:32;;;;;;;7.43;3.00;;;-3276.60;95.30;;;;;;5036839;28;20127;-82
2021/01/25 00:27:59;;;;;;;5.38;1.88;;;-3276.60;95.30;;;;;;5040387;28;20052;-82
2021/01/25 00:30:27;;;;;;;2.28;1.52;;;-3276.70;95.10;;;;;;5022267;28;20052;-81
2021/01/25 00:32:54;;;;;;;6.97;2.42;;;-3276.60;95.00;;;;;;5039417;28;20057;-85
2021/01/25 00:35:21;;;;;;;9.30;3.53;;;-3276.60;95.20;;;;;;5055055;28;20241;-83
2021/01/25 00:37:47;;;;;;;7.28;2.55;;;-3276.70;95.10;;;;;;5035596;28;20067;-82
2021/01/25 00:40:15;;;;;;;12.48;3.55;;;0.00;94.70;;;;;;5031984;28;20047;-80
2021/01/25 00:42:42;;;;;;;6.43;3.08;;;-3276.70;94.50;;;;;;5055023;28;20065;-83
2021/01/25 00:45:11;;;;;;;5.15;2.47;;;-3276.70;94.20;;;;;;5015381;28;20088;-82
2021/01/25 00:47:39;;;;;;;5.85;1.75;;;0.00;93.90;;;;;;5052539;28;20079;-82
2021/01/25 00:50:08;;;;;;;3.92;1.67;;;0.00;93.70;;;;;;5054835;28;20049;-84
2021/01/25 00:52:35;;;;;;;5.60;2.78;;;-3276.70;93.90;;;;;;5035532;28;20078;-80
2021/01/25 00:55:11;;;;;;;3.45;2.10;;;-3276.60;93.90;;;;;;5036599;28;20063;-83
2021/01/25 00:57:39;;;;;;;2.92;1.88;;;-3276.60;94.20;;;;;;5034665;28;22817;-80
2021/01/25 01:00:09;;;;;;;2.72;1.58;;;-3276.60;94.40;;;;;;5050773;28;20249;-83
2021/01/25 01:02:36;;;;;;;4.27;2.03;;;-3276.60;94.30;;;;;;5052794;28;20117;-83
2021/01/25 01:05:05;;;;;;;7.15;2.53;;;-3276.60;94.30;;;;;;5048901;28;20311;-80
2021/01/25 01:07:33;;;;;;;9.00;2.88;;;-3276.60;94.30;;;;;;5018471;28;20041;-80
2021/01/25 01:10:00;;;;;;;5.00;2.65;;;-3276.50;94.50;;;;;;5034209;28;20049;-82
2021/01/25 01:12:32;;;;;;;3.15;1.23;;;-3276.50;94.50;;;;;;5030889;28;21147;-81
2021/01/25 01:14:59;;;;;;;4.32;2.00;;;-3276.50;94.30;;;;;;5033919;28;20037;-81
2021/01/25 01:17:27;;;;;;;4.78;2.15;;;-3276.40;94.40;;;;;;5053892;28;20451;-81
2021/01/25 01:19:54;;;;;;;6.30;2.35;;;-3276.40;94.50;;;;;;5051430;28;20336;-80
2021/01/25 01:22:21;;;;;;;4.97;1.90;;;-3276.40;94.50;;;;;;5052218;28;20343;-83
2021/01/25 01:24:49;;;;;;;3.92;1.60;;;-3276.50;94.30;;;;;;5037391;28;20076;-83
2021/01/25 01:27:16;;;;;;;5.15;2.67;;;-3276.60;94.10;;;;;;5053765;28;20041;-82
2021/01/25 01:29:44;;;;;;;10.27;2.85;;;-3276.60;94.00;;;;;;5037533;28;20053;-80
2021/01/25 01:32:11;;;;;;;6.40;2.05;;;-3276.60;93.80;;;;;;5021529;28;20244;-83
2021/01/25 01:34:37;;;;;;;7.63;2.28;;;-3276.70;93.70;;;;;;5037581;28;20060;-83
2021/01/25 01:37:04;;;;;;;7.03;2.40;;;-3276.60;93.70;;;;;;5036035;28;20049;-84
2021/01/25 01:39:32;;;;;;;5.00;2.45;;;-3276.60;93.90;;;;;;5054192;28;20056;-82
2021/01/25 01:41:59;;;;;;;7.18;2.85;;;-3276.70;93.80;;;;;;5036899;28;20088;-83
2021/01/25 01:44:25;;;;;;;4.40;2.20;;;-3276.70;93.80;;;;;;5037844;28;20052;-85
2021/01/25 01:46:53;;;;;;;17.55;5.60;;;0.00;93.60;;;;;;5051797;28;20057;-83
2021/01/25 01:49:20;;;;;;;4.30;1.85;;;0.00;93.40;;;;;;5050344;28;20332;-82
2021/01/25 01:51:47;;;;;;;5.95;2.60;;;0.00;93.40;;;;;;5053038;28;20057;-89
2021/01/25 01:54:15;;;;;;;7.25;2.55;;;0.00;93.40;;;;;;5038176;28;20048;-82
2021/01/25 01:56:43;;;;;;;5.38;1.88;;;0.00;93.30;;;;;;5050118;28;20064;-82
2021/01/25 01:59:10;;;;;;;5.60;2.35;;;0.00;93.20;;;;;;5050611;28;20056;-84
2021/01/25 02:01:37;;;;;;;3.80;2.05;;;0.00;92.90;;;;;;5016594;28;20059;-83
2021/01/25 02:04:04;;;;;;;5.25;2.60;;;0.00;93.10;;;;;;5035263;28;20119;-83
2021/01/25 02:06:35;;;;;;;5.60;2.20;;;0.10;93.10;;;;;;5030548;28;20395;-82
2021/01/25 02:09:06;;;;;;;6.45;2.88;;;0.10;93.00;;;;;;5034314;28;20060;-84
2021/01/25 02:11:34;;;;;;;5.35;2.95;;;0.10;92.90;;;;;;5040923;28;20056;-84
2021/01/25 02:14:03;;;;;;;11.02;3.58;;;0.10;93.00;;;;;;5018847;28;20143;-82
2021/01/25 02:16:29;;;;;;;4.22;2.50;;;0.20;93.00;;;;;;5035288;28;20053;-82
2021/01/25 02:18:57;;;;;;;5.93;2.38;;;0.20;92.80;;;;;;5035699;28;20068;-82
2021/01/25 02:21:30;;;;;;;4.90;2.80;;;0.10;92.90;;;;;;5030915;28;20045;-81
2021/01/25 02:24:09;;;;;;;2.92;1.65;;;0.10;93.70;;;;;;5049816;28;20071;-81
2021/01/25 02:26:58;;;;;;;5.47;2.65;;;0.20;93.60;;;;;;5047949;28;20053;-84
2021/01/25 02:29:25;;;;;;;8.40;2.90;;;0.20;93.00;;;;;;5050862;28;20049;-81
2021/01/25 02:31:53;;;;;;;5.20;2.50;;;0.20;93.10;;;;;;5027862;28;20110;-82
2021/01/25 02:34:20;;;;;;;4.10;2.20;;;0.40;92.90;;;;;;5047433;28;20116;-83
2021/01/25 02:36:47;;;;;;;19.63;3.00;;;0.50;93.00;;;;;;5022679;28;20041;-80
2021/01/25 02:39:16;;;;;;;4.57;2.35;;;0.50;92.30;;;;;;5018541;28;20057;-84
2021/01/25 02:41:44;;;;;;;4.55;2.40;;;0.60;92.30;;;;;;5029721;28;20099;-86
2021/01/25 02:44:12;;;;;;;4.38;2.33;;;0.60;92.50;;;;;;5036242;28;20059;-85
2021/01/25 02:46:40;;;;;;;7.20;2.50;;;0.70;92.20;;;;;;5033013;28;20061;-85
2021/01/25 02:49:07;;;;;;;6.32;3.08;;;0.60;92.10;;;;;;5029254;28;20057;-83
2021/01/25 02:51:35;;;;;;;5.22;2.33;;;0.60;92.00;;;;;;5046143;28;20051;-86
2021/01/25 02:54:03;;;;;;;4.10;2.25;;;0.70;91.70;;;;;;5025287;28;21103;-85
2021/01/25 02:56:30;;;;;;;3.90;2.20;;;0.60;91.50;;;;;;5032549;28;20090;-84
2021/01/25 02:58:57;;;;;;;6.55;2.22;;;0.60;91.60;;;;;;5051183;28;20057;-83
2021/01/25 03:01:26;;;;;;;6.93;2.63;;;0.60;91.60;;;;;;5018460;28;20053;-83
2021/01/25 03:03:55;;;;;;;5.35;3.05;;;0.60;91.90;;;;;;5050902;28;20202;-85
2021/01/25 03:06:22;;;;;;;4.40;2.30;;;0.60;91.90;;;;;;5050254;28;20279;-83
2021/01/25 03:08:49;;;;;;;6.35;4.55;;;0.60;91.80;;;;;;5046777;28;20052;-84
2021/01/25 03:11:19;;;;;;;8.68;3.13;;;0.50;92.00;;;;;;5027867;28;20111;-84
2021/01/25 03:13:46;;;;;;;5.50;2.70;;;0.50;92.00;;;;;;5031946;28;20061;-82
2021/01/25 03:16:16;;;;;;;7.72;3.03;;;0.50;92.10;;;;;;5047677;28;20049;-81
2021/01/25 03:18:49;;;;;;;4.00;1.98;;;0.50;92.20;;;;;;5034036;28;20039;-83
2021/01/25 03:21:17;;;;;;;8.45;2.90;;;0.50;92.20;;;;;;5030641;28;20114;-82
2021/01/25 03:23:43;;;;;;;9.20;4.13;;;0.50;92.30;;;;;;5043037;28;20057;-82
2021/01/25 03:26:10;;;;;;;5.05;2.33;;;0.40;92.30;;;;;;5044599;28;20056;-82
2021/01/25 03:28:37;;;;;;;4.53;2.92;;;0.40;92.40;;;;;;5044553;28;20052;-85
2021/01/25 03:31:04;;;;;;;6.60;2.70;;;0.40;92.30;;;;;;5032200;28;20052;-83
2021/01/25 03:33:31;;;;;;;5.03;3.15;;;0.40;92.40;;;;;;5029679;28;20601;-81
2021/01/25 03:35:58;;;;;;;6.55;2.63;;;0.40;92.20;;;;;;5050878;28;20332;-82
2021/01/25 03:38:26;;;;;;;5.78;2.97;;;0.50;91.90;;;;;;5051550;28;20060;-82
2021/01/25 03:40:53;;;;;;;8.50;2.60;;;0.50;92.10;;;;;;5034221;28;20049;-84
2021/01/25 03:43:20;;;;;;;5.72;2.95;;;0.50;92.00;;;;;;5053038;28;20048;-83
2021/01/25 03:45:47;;;;;;;3.10;1.92;;;0.50;92.00;;;;;;5050785;28;20049;-83
2021/01/25 03:48:14;;;;;;;3.92;1.83;;;0.50;92.00;;;;;;5055245;28;20068;-83
2021/01/25 03:50:41;;;;;;;6.80;3.10;;;0.50;92.10;;;;;;5036820;28;20205;-81
2021/01/25 03:53:07;;;;;;;4.93;1.95;;;0.50;92.00;;;;;;5033360;28;20341;-85
2021/01/25 03:55:35;;;;;;;7.45;4.18;;;0.50;91.90;;;;;;5055363;28;20061;-88
2021/01/25 03:58:08;;;;;;;4.20;2.15;;;0.50;92.00;;;;;;5059009;28;20298;-87
2021/01/25 04:00:36;;;;;;;6.30;2.28;;;0.50;91.80;;;;;;5053346;28;20963;-84
2021/01/25 04:03:06;;;;;;;5.43;2.60;;;0.60;91.80;;;;;;5051754;28;20056;-85
2021/01/25 04:05:32;;;;;;;11.48;3.20;;;0.50;91.70;;;;;;5036344;28;20060;-83
2021/01/25 04:07:59;;;;;;;3.65;1.98;;;0.50;91.70;;;;;;5020558;28;20438;-82
2021/01/25 04:10:26;;;;;;;4.95;2.00;;;0.40;91.80;;;;;;5053112;28;20244;-82
2021/01/25 04:12:54;;;;;;;4.93;2.63;;;0.40;92.10;;;;;;5055118;28;20056;-82
2021/01/25 04:15:21;;;;;;;5.47;2.55;;;0.40;92.20;;;;;;5037886;28;20064;-83
2021/01/25 04:17:47;;;;;;;5.05;2.10;;;0.50;92.20;;;;;;5036333;28;20048;-83
2021/01/25 04:20:15;;;;;;;5.93;2.42;;;0.50;91.70;;;;;;5020865;28;20049;-84
2021/01/25 04:22:41;;;;;;;6.03;2.95;;;0.50;91.60;;;;;;5053817;28;20279;-84
2021/01/25 04:25:09;;;;;;;5.05;3.00;;;0.50;91.60;;;;;;5033623;28;20205;-84
2021/01/25 04:27:37;;;;;;;7.72;2.28;;;0.60;91.50;;;;;;5036584;28;20080;-81
2021/01/25 04:30:09;;;;;;;5.05;2.67;;;0.60;91.50;;;;;;5038287;28;20044;-81
2021/01/25 04:32:37;;;;;;;5.40;2.45;;;0.50;91.50;;;;;;5031464;28;20052;-83
2021/01/25 04:35:11;;;;;;;3.55;2.05;;;0.50;91.70;;;;;;5054053;28;20053;-82
2021/01/25 04:37:40;;;;;;;4.70;2.97;;;0.50;91.90;;;;;;5053645;28;20079;-82
2021/01/25 04:40:09;;;;;;;6.65;3.30;;;0.50;91.80;;;;;;5051810;28;20056;-83
2021/01/25 04:42:37;;;;;;;5.15;2.58;;;0.50;91.90;;;;;;5053406;28;20355;-82
2021/01/25 04:45:08;;;;;;;6.22;2.58;;;0.50;91.70;;;;;;5034009;28;20045;-82
2021/01/25 04:47:35;;;;;;;4.15;2.30;;;0.60;91.80;;;;;;5016949;28;20087;-82
2021/01/25 04:50:03;;;;;;;2.45;1.77;;;0.60;91.90;;;;;;5044942;28;20055;-82
2021/01/25 04:52:30;;;;;;;7.18;3.03;;;0.70;91.60;;;;;;5050368;28;20051;-82
2021/01/25 04:54:58;;;;;;;4.18;1.75;;;0.70;91.50;;;;;;5036463;28;20052;-84
2021/01/25 04:57:25;;;;;;;6.18;2.33;;;0.70;91.70;;;;;;5026633;28;20129;-83
2021/01/25 04:59:54;;;;;;;4.70;2.38;;;0.70;91.70;;;;;;5048746;28;20261;-83
2021/01/25 05:02:21;;;;;;;6.45;2.35;;;0.80;91.50;;;;;;5047484;28;20410;-83
2021/01/25 05:04:48;;;;;;;3.83;2.22;;;0.80;91.30;;;;;;5041775;28;20064;-85
2021/01/25 05:07:15;;;;;;;6.75;2.40;;;0.90;90.70;;;;;;5045050;28;20068;-83
2021/01/25 05:09:42;;;;;;;6.82;3.22;;;0.80;90.60;;;;;;5044338;28;20050;-82
2021/01/25 05:12:12;;;;;;;6.95;2.67;;;0.80;90.50;;;;;;5044692;28;20140;-81
2021/01/25 05:14:41;;;;;;;6.70;2.65;;;0.70;90.70;;;;;;5045029;28;20133;-85
2021/01/25 05:17:09;;;;;;;5.63;2.97;;;0.80;90.90;;;;;;5009967;28;20060;-82
2021/01/25 05:19:38;;;;;;;4.55;2.45;;;0.70;91.10;;;;;;5043239;28;20375;-84
2021/01/25 05:22:12;;;;;;;4.75;2.30;;;0.80;90.90;;;;;;5025737;28;20072;-84
2021/01/25 05:24:49;;;;;;;7.18;2.67;;;0.70;90.80;;;;;;5043828;28;20053;-82
2021/01/25 05:27:23;;;;;;;6.05;3.13;;;0.70;91.10;;;;;;5044532;28;20248;-84
2021/01/25 05:29:50;;;;;;;5.05;2.05;;;0.70;91.00;;;;;;5049173;28;20053;-82
2021/01/25 05:32:19;;;;;;;4.32;2.15;;;0.70;90.80;;;;;;5045500;28;20405;-84
2021/01/25 05:35:06;;;;;;;6.25;2.60;;;0.70;91.10;;;;;;5044656;28;20072;-84
2021/01/25 05:37:36;;;;;;;8.93;2.40;;;0.70;91.40;;;;;;5045934;28;20114;-84
2021/01/25 05:40:04;;;;;;;7.72;3.63;;;0.80;91.00;;;;;;5047098;28;20095;-84
2021/01/25 05:42:33;;;;;;;6.47;3.15;;;0.70;90.90;;;;;;5043912;28;20757;-81
2021/01/25 05:45:05;;;;;;;5.65;2.33;;;0.70;91.50;;;;;;5047738;28;20336;-81
2021/01/25 05:47:46;;;;;;;5.05;3.20;;;0.80;91.10;;;;;;5012055;28;20049;-83
2021/01/25 05:50:26;;;;;;;5.63;2.90;;;0.90;90.70;;;;;;5042923;28;20076;-82
2021/01/25 05:52:54;;;;;;;8.87;3.40;;;0.80;91.10;;;;;;5044838;28;20064;-84
2021/01/25 05:55:21;;;;;;;4.28;2.38;;;0.80;91.00;;;;;;5030054;28;20052;-84
2021/01/25 05:57:48;;;;;;;6.95;3.03;;;0.80;91.00;;;;;;5052815;28;20249;-84
2021/01/25 06:00:16;;;;;;;6.28;3.13;;;0.80;90.90;;;;;;5046012;28;20052;-84
2021/01/25 06:02:47;;;;;;;4.97;2.47;;;0.80;91.10;;;;;;5044164;28;20057;-81
2021/01/25 06:05:26;;;;;;;6.20;2.78;;;0.80;91.00;;;;;;5034170;28;20280;-82
2021/01/25 06:08:01;;;;;;;9.13;3.17;;;0.80;91.50;;;;;;5028608;28;20068;-86
2021/01/25 06:10:34;;;;;;;5.40;2.58;;;0.90;91.20;;;;;;5049099;28;20061;-84
2021/01/25 06:13:06;;;;;;;6.65;3.03;;;0.80;91.40;;;;;;5029663;28;20052;-82
2021/01/25 06:15:36;;;;;;;4.47;1.90;;;0.70;92.10;;;;;;5047340;28;22502;-83
2021/01/25 06:18:04;;;;;;;9.63;3.42;;;0.80;91.40;;;;;;5047696;28;20057;-83
2021/01/25 06:20:35;;;;;;;5.75;2.92;;;0.70;91.90;;;;;;5011527;28;20049;-84
2021/01/25 06:23:04;;;;;;;8.65;3.17;;;0.70;92.30;;;;;;5029149;28;20056;-83
2021/01/25 06:25:31;;;;;;;6.70;2.80;;;0.70;92.50;;;;;;5032921;28;20052;-83
2021/01/25 06:27:58;;;;;;;4.57;2.38;;;0.90;92.20;;;;;;5048728;28;20064;-83
2021/01/25 06:30:26;;;;;;;8.00;3.42;;;1.00;91.10;;;;;;5029103;28;20051;-84
2021/01/25 06:32:54;;;;;;;4.13;2.30;;;1.00;90.70;;;;;;5034825;28;20076;-85
2021/01/25 06:35:21;;;;;;;6.03;3.70;;;1.00;90.70;;;;;;5049696;28;20045;-83
2021/01/25 06:37:54;;;;;;;9.52;3.10;;;1.00;90.80;;;;;;5048867;28;20059;-83
2021/01/25 06:40:26;;;;;;;6.07;3.28;;;0.80;90.70;;;;;;5013929;28;20059;-85
2021/01/25 06:43:14;;;;;;;5.38;2.65;;;0.80;91.10;;;;;;5032245;28;20056;-84
2021/01/25 06:45:44;;;;;;;5.20;2.90;;;0.90;91.10;;;;;;5030183;28;20052;-82
2021/01/25 06:48:13;;;;;;;7.27;3.53;;;0.90;90.70;;;;;;5051467;28;20443;-83
2021/01/25 06:50:43;;;;;;;5.88;2.80;;;0.90;90.80;;;;;;5048837;28;20303;-84
2021/01/25 06:53:12;;;;;;;5.85;2.95;;;0.90;90.90;;;;;;5012772;28;20057;-82
2021/01/25 06:55:42;;;;;;;9.18;2.67;;;0.90;90.70;;;;;;5030254;28;20045;-84
2021/01/25 06:58:11;;;;;;;7.68;2.30;;;0.90;90.70;;;;;;5029727;28;20057;-85
2021/01/25 07:00:39;;;;;;;7.00;3.00;;;1.00;90.50;;;;;;5049121;28;20329;-84
2021/01/25 07:03:19;;;;;;;8.38;3.60;;;0.80;91.10;;;;;;5029694;28;20280;-83
2021/01/25 07:05:49;;;;;;;9.57;2.90;;;0.80;91.90;;;;;;5047872;28;20054;-84
2021/01/25 07:08:18;;;;;;;6.50;3.33;;;0.90;90.70;;;;;;5012834;28;20049;-84
2021/01/25 07:10:55;;;;;;;5.95;2.80;;;0.90;91.10;;;;;;5028386;28;20073;-83
2021/01/25 07:13:27;;;;;;;10.60;4.15;;;0.80;91.50;;;;;;5031216;28;20061;-84
2021/01/25 07:15:55;;;;;;;6.18;3.03;;;1.00;91.20;;;;;;5033392;28;20476;-83
2021/01/25 07:18:27;;;;;;;7.68;4.10;;;1.00;91.10;;;;;;5046608;28;20064;-84
2021/01/25 07:20:56;;;;;;;4.72;2.92;;;1.00;91.20;;;;;;5052437;28;20117;-81
2021/01/25 07:23:25;;;;;;;4.13;2.05;;;1.00;90.90;;;;;;5049004;28;20292;-84
2021/01/25 07:25:57;;;;;;;7.68;2.83;;;1.10;90.10;;;;;;5017959;28;20057;-82
2021/01/25 07:28:25;;;;;;;6.85;3.28;;;1.00;90.30;;;;;;5050466;28;20049;-84
2021/01/25 07:30:52;;;;;;;9.13;3.13;;;1.00;90.30;;;;;;5054931;28;20063;-85
2021/01/25 07:33:19;;;;;;;5.60;3.30;;;1.00;90.60;;;;;;5047885;28;20049;-85
2021/01/25 07:35:46;;;;;;;7.50;3.17;;;0.90;90.80;;;;;;5032745;28;20074;-82
2021/01/25 07:38:15;;;;;;;7.82;3.35;;;1.00;91.30;;;;;;5050640;28;20067;-83
2021/01/25 07:40:44;;;;;;;6.40;3.25;;;1.00;91.00;;;;;;5033849;28;20052;-86
2021/01/25 07:43:14;;;;;;;6.47;2.92;;;1.20;90.10;;;;;;5031700;28;20065;-84
2021/01/25 07:45:41;;;;;;;4.30;2.13;;;1.20;90.10;;;;;;5032840;28;20166;-84
2021/01/25 07:48:09;;;;;;;9.23;2.75;;;1.30;89.40;;;;;;5036554;28;20710;-84
2021/01/25 07:50:36;;;;;;;6.25;2.55;;;1.20;89.70;;;;;;5021779;28;20776;-83
2021/01/25 07:53:05;;;;;;;6.45;2.83;;;1.10;89.90;;;;;;5047901;28;20407;-84
2021/01/25 07:55:37;;;;;;;5.18;2.83;;;1.20;90.30;;;;;;5044637;28;20053;-82
2021/01/25 07:58:09;;;;;;;5.07;2.70;;;1.30;89.00;;;;;;5035358;28;20072;-84
2021/01/25 08:00:37;;;;;;;5.55;2.97;;;1.30;89.20;;;;;;5050009;28;20474;-84
2021/01/25 08:03:29;;;;;;;7.47;2.60;;;1.30;88.80;;;;;;5038007;28;20088;-85
2021/01/25 08:05:59;;;;;;;4.97;2.83;;;1.40;88.40;;;;;;5045327;28;20049;-82
2021/01/25 08:08:28;;;;;;;8.82;2.55;;;1.50;88.20;;;;;;5047820;28;20103;-84
2021/01/25 08:10:56;;;;;;;5.78;2.22;;;1.50;86.70;;;;;;5029144;28;20076;-82
2021/01/25 08:13:27;;;;;;;9.20;2.95;;;1.50;87.10;;;;;;5029343;28;20041;-81
2021/01/25 08:16:00;;;;;;;11.60;3.58;;;1.50;87.70;;;;;;5052699;28;20060;-85
2021/01/25 08:18:35;;;;;;;6.47;2.95;;;1.60;87.40;;;;;;5049915;28;20045;-82
2021/01/25 08:21:05;;;;;;;8.13;3.03;;;1.70;87.30;;;;;;5030758;28;20053;-84
2021/01/25 08:23:37;;;;;;;9.30;2.75;;;1.60;86.40;;;;;;5049861;28;20064;-82
2021/01/25 08:26:04;;;;;;;5.82;2.55;;;1.60;86.90;;;;;;5032317;28;20053;-83
2021/01/25 08:28:34;;;;;;;6.97;3.13;;;1.70;86.20;;;;;;5033170;28;20059;-84
2021/01/25 08:31:13;;;;;;;21.90;4.53;;;1.60;86.90;;;;;;5036246;28;20339;-84
2021/01/25 08:33:42;;;;;;;4.38;2.53;;;1.60;87.70;;;;;;5051355;28;20300;-85
2021/01/25 08:36:13;;;;;;;7.00;3.90;;;1.60;88.00;;;;;;5028296;28;20049;-85
2021/01/25 08:38:41;;;;;;;9.68;3.80;;;1.50;87.70;;;;;;5015212;28;20048;-83
2021/01/25 08:41:21;;;;;;;7.32;4.15;;;1.60;87.80;;;;;;5029034;28;20088;-86
2021/01/25 08:43:54;;;;;;;17.88;6.90;;;1.60;88.20;;;;;;5008829;28;20143;-83
2021/01/25 08:46:28;;;;;;;14.18;7.72;;;1.80;87.80;;;;;;5008415;28;20165;-84
2021/01/25 08:49:07;;;;;;;11.63;5.15;;;1.80;87.50;;;;;;5009982;28;20072;-87
2021/01/25 08:51:37;;;;;;;10.77;4.68;;;2.00;86.90;;;;;;5009021;28;20081;-85
2021/01/25 08:54:07;;;;;;;10.63;5.05;;;2.00;86.40;;;;;;5010187;28;20046;-83
2021/01/25 08:56:37;;;;;;;8.70;5.20;;;2.00;86.90;;;;;;5010727;28;20042;-82
2021/01/25 08:59:12;;;;;;;9.15;4.25;;;1.90;87.00;;;;;;5009278;28;20434;-83
2021/01/25 09:01:40;;;;;;;6.50;3.20;;;2.00;86.80;;;;;;5011554;28;20116;-84
2021/01/25 09:04:08;;;;;;;8.10;3.88;;;2.10;85.60;;;;;;4990168;28;20137;-83
2021/01/25 09:06:47;;;;;;;13.98;3.35;;;2.10;84.90;;;;;;5004415;28;20352;-86
2021/01/25 09:09:14;;;;;;;7.50;3.45;;;2.10;85.30;;;;;;5002890;28;20045;-84
2021/01/25 09:11:58;;;;;;;6.85;2.55;;;2.20;85.40;;;;;;1862997;28;10022684;-83
2021/01/25 09:14:25;;;;;;;5.72;3.33;;;2.30;85.70;;;;;;3971234;28;10001117;-83
2021/01/25 09:16:52;;;;;;;7.22;3.72;;;2.30;85.20;;;;;;4994769;28;20050;-85
2021/01/25 09:19:19;;;;;;;7.70;3.60;;;2.40;85.50;;;;;;4998246;28;20383;-84
2021/01/25 09:21:46;;;;;;;9.90;5.63;;;2.50;84.30;;;;;;5008151;28;20054;-84
2021/01/25 09:24:13;;;;;;;10.40;6.13;;;2.70;83.90;;;;;;5012101;28;20160;-86
2021/01/25 09:26:40;;;;;;;8.23;4.95;;;3.00;82.50;;;;;;5009000;28;20126;-85
2021/01/25 09:29:07;;;;;;;10.20;5.32;;;3.40;83.10;;;;;;5007568;28;20052;-84
2021/01/25 09:31:35;;;;;;;14.43;6.97;;;3.80;81.00;;;;;;5008624;28;20057;-83
2021/01/25 09:34:05;;;;;;;11.05;4.18;;;4.20;77.70;;;;;;5004429;28;20293;-84
2021/01/25 09:36:33;;;;;;;12.03;7.07;;;4.10;76.60;;;;;;4990193;28;20113;-85
2021/01/25 09:39:06;;;;;;;15.07;8.63;;;4.50;77.70;;;;;;5009993;28;20319;-82
2021/01/25 09:41:35;;;;;;;7.68;4.72;;;5.40;73.70;;;;;;5004066;28;20061;-85
2021/01/25 09:44:05;;;;;;;6.45;3.50;;;5.70;72.40;;;;;;5023630;28;20173;-83
2021/01/25 09:46:32;;;;;;;6.05;3.38;;;6.70;69.30;;;;;;5027934;28;20057;-83
2021/01/25 09:49:00;;;;;;;9.00;3.40;;;7.30;65.10;;;;;;5011057;28;20065;-83
2021/01/25 09:51:29;;;;;;;8.95;3.40;;;6.90;62.50;;;;;;5027240;28;20113;-82
2021/01/25 09:53:56;;;;;;;8.68;2.47;;;7.00;68.60;;;;;;5008848;28;20171;-83
2021/01/25 09:56:22;;;;;;;7.35;3.92;;;6.30;65.50;;;;;;5028886;28;20045;-84
2021/01/25 09:58:49;;;;;;;5.43;2.67;;;5.80;67.30;;;;;;5030182;28;20061;-82
2021/01/25 10:01:16;;;;;;;6.40;3.45;;;5.90;67.70;;;;;;5029348;28;20383;-83
2021/01/25 10:03:45;;;;;;;7.65;3.30;;;5.40;67.90;;;;;;5012116;28;20057;-84
2021/01/25 10:06:15;;;;;;;7.03;3.38;;;5.20;69.80;;;;;;5000904;28;20052;-83
2021/01/25 10:08:43;;;;;;;6.53;2.53;;;5.30;69.30;;;;;;5026981;28;20058;-83
2021/01/25 10:11:09;;;;;;;8.63;3.22;;;5.30;69.90;;;;;;5010839;28;20342;-86
2021/01/25 10:13:37;;;;;;;6.45;3.15;;;4.90;70.00;;;;;;5010544;28;20061;-85
2021/01/25 10:16:04;;;;;;;7.88;2.83;;;5.00;69.20;;;;;;4994247;28;20053;-83
2021/01/25 10:18:33;;;;;;;6.38;2.92;;;5.00;69.30;;;;;;5028872;28;20048;-83
2021/01/25 10:21:00;;;;;;;5.90;2.67;;;4.80;70.70;;;;;;5020739;28;20041;-82
2021/01/25 10:23:31;;;;;;;5.60;2.47;;;4.80;70.40;;;;;;5046392;28;20060;-85
2021/01/25 10:25:59;;;;;;;6.63;3.30;;;4.90;71.90;;;;;;5044999;28;20178;-84
2021/01/25 10:28:27;;;;;;;5.40;2.78;;;5.10;71.30;;;;;;5044369;28;20068;-84
2021/01/25 10:30:56;;;;;;;6.38;3.13;;;5.20;69.80;;;;;;5051609;28;20160;-82
2021/01/25 10:33:23;;;;;;;4.72;2.63;;;5.00;70.90;;;;;;5030760;28;20064;-83
2021/01/25 10:35:50;;;;;;;7.97;3.05;;;5.00;71.20;;;;;;5009544;28;20229;-82
2021/01/25 10:38:16;;;;;;;5.25;2.72;;;4.60;72.70;;;;;;5044012;28;20044;-84
2021/01/25 10:40:44;;;;;;;8.07;3.60;;;4.80;73.10;;;;;;5023025;28;20091;-84
2021/01/25 10:43:11;;;;;;;7.25;3.78;;;4.90;73.00;;;;;;5043516;28;20522;-83
2021/01/25 10:45:39;;;;;;;8.98;3.80;;;4.80;72.90;;;;;;5025580;28;20702;-83
2021/01/25 10:48:11;;;;;;;6.88;3.00;;;4.70;74.50;;;;;;5046786;28;20444;-83
2021/01/25 10:50:38;;;;;;;8.18;4.20;;;4.70;74.50;;;;;;5048112;28;20057;-83
2021/01/25 10:53:05;;;;;;;10.95;6.93;;;4.80;74.40;;;;;;5034181;28;20071;-84
2021/01/25 10:55:32;;;;;;;9.45;5.13;;;4.80;74.30;;;;;;5050981;28;20052;-86
2021/01/25 10:58:00;;;;;;;9.45;5.15;;;4.80;74.40;;;;;;5051117;28;20853;-84
2021/01/25 11:00:29;;;;;;;7.35;3.55;;;4.80;74.90;;;;;;5050360;28;20075;-82
2021/01/25 11:02:56;;;;;;;6.90;4.22;;;4.90;74.90;;;;;;5017888;28;20049;-82
2021/01/25 11:05:26;;;;;;;12.48;3.72;;;5.10;74.10;;;;;;5031652;28;20072;-85
2021/01/25 11:07:53;;;;;;;8.05;4.95;;;5.50;73.60;;;;;;5052588;28;20399;-83
2021/01/25 11:10:22;;;;;;;15.75;8.05;;;6.10;71.50;;;;;;5034532;28;20056;-83
2021/01/25 11:12:50;;;;;;;13.30;6.43;;;6.70;69.10;;;;;;5055119;28;20044;-84
2021/01/25 11:15:18;;;;;;;6.47;3.30;;;6.90;68.60;;;;;;5041363;28;20044;-84
2021/01/25 11:17:45;;;;;;;7.45;3.80;;;6.80;67.80;;;;;;5052854;28;20056;-82
2021/01/25 11:20:13;;;;;;;4.47;2.58;;;6.60;67.50;;;;;;5016278;28;20049;-82
2021/01/25 11:22:40;;;;;;;7.47;4.47;;;6.30;68.80;;;;;;5035766;28;20052;-84
2021/01/25 11:25:08;;;;;;;10.50;4.88;;;6.10;69.90;;;;;;5019373;28;20080;-85
2021/01/25 11:27:35;;;;;;;9.07;4.68;;;5.80;70.90;;;;;;5050565;28;20337;-84
2021/01/25 11:30:07;;;;;;;11.05;5.15;;;5.80;70.80;;;;;;5037758;28;20049;-83
2021/01/25 11:32:35;;;;;;;10.55;6.20;;;5.60;71.10;;;;;;5050815;28;20134;-84
2021/01/25 11:35:07;;;;;;;12.13;5.70;;;5.40;71.40;;;;;;5031757;28;20132;-84
2021/01/25 11:37:34;;;;;;;18.98;10.98;;;5.20;72.30;;;;;;5036133;28;20106;-84
2021/01/25 11:40:06;;;;;;;14.65;8.50;;;5.30;72.60;;;;;;5052218;28;20352;-84
2021/01/25 11:42:32;;;;;;;8.38;4.68;;;5.30;72.30;;;;;;5035885;28;20069;-84
2021/01/25 11:44:59;;;;;;;5.43;2.95;;;5.30;72.30;;;;;;5035689;28;20162;-83
2021/01/25 11:47:26;;;;;;;7.47;3.22;;;5.20;72.60;;;;;;5035566;28;20262;-84
2021/01/25 11:49:54;;;;;;;8.77;3.90;;;5.00;73.20;;;;;;5037364;28;20379;-84
2021/01/25 11:52:21;;;;;;;5.80;2.40;;;4.80;73.60;;;;;;5037558;28;20088;-82
2021/01/25 11:54:48;;;;;;;5.57;2.85;;;4.70;74.20;;;;;;5034742;28;20052;-84
2021/01/25 11:57:15;;;;;;;9.95;3.15;;;4.50;74.90;;;;;;5052990;28;20095;-84
2021/01/25 11:59:43;;;;;;;6.03;3.45;;;4.40;75.50;;;;;;5036021;28;20116;-82
2021/01/25 12:02:09;;;;;;;7.43;3.78;;;4.30;76.60;;;;;;5016479;28;20056;-83
2021/01/25 12:04:36;;;;;;;6.68;3.10;;;4.40;77.00;;;;;;5031917;28;20143;-83
2021/01/25 12:07:05;;;;;;;5.95;2.78;;;4.20;76.20;;;;;;5032741;28;20094;-83
2021/01/25 12:09:32;;;;;;;6.70;3.28;;;4.30;76.50;;;;;;5049506;28;20229;-84
2021/01/25 12:12:00;;;;;;;6.32;3.25;;;4.30;77.00;;;;;;5049356;28;20048;-83
2021/01/25 12:14:29;;;;;;;6.78;2.95;;;4.40;75.70;;;;;;5047461;28;20060;-83
2021/01/25 12:16:56;;;;;;;4.07;2.42;;;4.20;77.30;;;;;;5032278;28;20551;-83
2021/01/25 12:19:23;;;;;;;4.93;2.28;;;4.20;77.70;;;;;;5013545;28;20064;-85
2021/01/25 12:21:49;;;;;;;6.40;3.03;;;4.60;76.90;;;;;;5028715;28;20057;-84
2021/01/25 12:24:17;;;;;;;5.53;2.70;;;4.50;77.00;;;;;;5031380;28;20053;-84
2021/01/25 12:26:44;;;;;;;6.07;3.20;;;4.70;76.00;;;;;;5047209;28;20049;-82
2021/01/25 12:29:11;;;;;;;6.05;2.38;;;4.50;76.20;;;;;;5042168;28;20052;-81
2021/01/25 12:31:38;;;;;;;5.10;1.88;;;4.50;76.90;;;;;;5030871;28;20065;-80
2021/01/25 12:34:05;;;;;;;4.47;2.15;;;4.20;77.30;;;;;;5029600;28;20301;-81
2021/01/25 12:36:32;;;;;;;4.93;2.20;;;4.40;76.80;;;;;;5044163;28;20780;-82
2021/01/25 12:39:00;;;;;;;5.50;2.65;;;4.20;77.40;;;;;;5046773;28;20091;-80
2021/01/25 12:41:28;;;;;;;5.60;2.65;;;3.90;78.60;;;;;;5028274;28;20121;-80
2021/01/25 12:43:55;;;;;;;9.48;3.28;;;3.70;79.40;;;;;;5031235;28;20141;-81
2021/01/25 12:46:22;;;;;;;6.35;3.10;;;4.10;79.10;;;;;;5016701;28;20068;-80
2021/01/25 12:48:50;;;;;;;7.47;3.13;;;3.90;79.60;;;;;;5031806;28;20056;-81
2021/01/25 12:51:17;;;;;;;6.57;2.55;;;3.70;80.30;;;;;;5017406;28;20273;-80
2021/01/25 12:53:44;;;;;;;4.28;2.50;;;3.70;80.00;;;;;;5034840;28;20076;-85
2021/01/25 12:56:10;;;;;;;5.90;2.67;;;3.70;81.40;;;;;;5021441;28;20053;-83
2021/01/25 12:58:39;;;;;;;5.15;2.42;;;3.90;80.60;;;;;;5052804;28;20056;-81